Nearby METAR Reports

 

EGMC - Southend-On-Sea, United Kingdom
Distance from station: NE 10km
Updated: 16/08/2018 23:50
Clear
Clear
 Wind from W
Wind: W 7 mph , 11 km/h
Temperature: 14°C
Dew Point: 12°C
Humidity: 88%
Barometer: 1016 hPa
Summary: Clear
Visibility: greater than 7 miles , 10 km
2018/08/16 22:50 EGMC 162250Z 26006KT CAVOK 14/12 Q1016
EGLC - London City Airp, United Kingdom
Distance from station: W 37km
Updated: 16/08/2018 23:50
Clear
Clear
 Wind from SW
Wind: SW 5 mph , 7 km/h
Temperature: 16°C
Dew Point: 13°C
Humidity: 83%
Barometer: 1016 hPa
Clouds: Clear
Visibility: 6 miles , 10 km
2018/08/16 22:50 EGLC 162250Z AUTO 22004KT 9999 NCD 16/13 Q1016
EGKB - Biggin Hill, United Kingdom
Distance from station: WSW 45km
Updated: 16/08/2018 22:20
NOT Current
Clear
Clear
 Wind from S
Wind: S 10 mph , 17 km/h
Temperature: 14°C
Dew Point: 13°C
Humidity: 94%
Barometer: 1016 hPa
Summary: Clear
Visibility: greater than 7 miles , 10 km
2018/08/16 21:20 EGKB 162120Z 19009KT CAVOK 14/13 Q1016
 
EGSS - Stansted Airport, United Kingdom
Distance from station: NNW 48km
Updated: 16/08/2018 23:50
Clear
Clear
 Wind from W
Wind: W 2 mph , 4 km/h
Temperature: 13°C
Dew Point: 10°C
Humidity: 82%
Barometer: 1016 hPa
Clouds: Clear
Visibility: 6 miles , 10 km
2018/08/16 22:50 EGSS 162250Z AUTO 28002KT 9999 NCD 13/10 Q1016
EGKK - London/Gatwick A, United Kingdom
Distance from station: SW 67km
Updated: 16/08/2018 23:50
Clear
Clear
 Wind from SW
Wind: SW 5 mph , 7 km/h
Temperature: 14°C
Dew Point: 13°C
Humidity: 94%
Barometer: 1017 hPa
Summary: Clear
Visibility: greater than 7 miles , 10 km
2018/08/16 22:50 EGKK 162250Z 22004KT CAVOK 14/13 Q1017
EGMD - Lydd Airport, United Kingdom
Distance from station: SSE 67km
Updated: 16/08/2018 23:50
Clear
Clear
 Wind from WNW
Wind: WNW 6 mph , 9 km/h
Temperature: 14°C
Dew Point: 14°C
Humidity: 100%
Barometer: 1017 hPa
Clouds: Clear
Visibility: 6 miles , 10 km
2018/08/16 22:50 EGMD 162250Z AUTO 29005KT 9999 NCD 14/14 Q1017
 
EGWU - Northolt Raf, United Kingdom
Distance from station: W 69km
Updated: 16/08/2018 23:50
Clear
Clear
 Wind from WNW
Wind: WNW 8 mph , 13 km/h
Temperature: 13°C
Dew Point: 10°C
Humidity: 82%
Barometer: 1016 hPa
Clouds: Clear
Visibility: 6 miles , 10 km
2018/08/16 22:50 EGWU 162250Z AUTO 30007KT 9999 // NCD 13/10 Q1016
EGLL - London/Heathrow, United Kingdom
Distance from station: W 72km
Updated: 16/08/2018 23:50
Clear
Clear
 Wind from WNW
Wind: WNW 10 mph , 17 km/h
Temperature: 15°C
Dew Point: 10°C
Humidity: 72%
Barometer: 1017 hPa
Clouds: Clear
Visibility: 6 miles , 10 km
2018/08/16 22:50 EGLL 162250Z AUTO 29009KT 9999 NCD 15/10 Q1017 NOSIG
EGUW - Wattisham Raf, United Kingdom
Distance from station: NNE 72km
Updated: 16/08/2018 23:50
Clear
Clear
 Wind from SW
Wind: SW 6 mph , 9 km/h
Temperature: 12°C
Dew Point: 11°C
Humidity: 94%
Barometer: 1015 hPa
Clouds: Clear
Visibility: 6 miles , 10 km
2018/08/16 22:50 EGUW 162250Z AUTO 23005KT 9999 NCD 12/11 Q1015
 
EGGW - Luton Airport, United Kingdom
Distance from station: WNW 76km
Updated: 16/08/2018 23:50
Clear
Clear
 Wind from W
Wind: W 10 mph , 17 km/h
Temperature: 14°C
Dew Point: 10°C
Humidity: 77%
Barometer: 1016 hPa
Clouds: Clear
Visibility: 6 miles , 10 km
2018/08/16 22:50 EGGW 162250Z AUTO 26009KT 9999 NCD 14/10 Q1016
EGSC - Cambridge, United Kingdom
Distance from station: NNW 81km
Updated: 16/08/2018 17:50
NOT Current
Few Clouds
Few Clouds
 Wind from WSW
Wind: WSW 12 mph , 19 km/h
Temperature: 20°C
Dew Point: 9°C
Humidity: 49%
Barometer: 1013 hPa
Clouds: Few Clouds
Visibility: 6 miles , 10 km
Cloud details: Few Clouds 914 m
2018/08/16 16:50 EGSC 161650Z 25010KT 9999 FEW030 20/09 Q1013